Aplicació Alertes

Dades de l'estació automàtica Alcanar

?
?
Resum diari 22:30 TU
Dades diàries de l'estació meteorològica
Temperatura mitjana 10.3 °C
Temperatura màxima 15.5 °C 13:45 TU
Temperatura mínima 6.6 °C 4:03 TU
Humitat relativa mitjana 42%
Precipitació acumulada 0.0 mm
Ratxa màxima del vent (2 m) 37.1 km/h - 22º 0:44 TU
Irradiació solar global 9.3 MJ/m2

El tram horari està expressat en Temps Universal (TU). Cal sumar una hora en horari d'hivern i dues en horari d'estiu per passar a l'hora oficial.

Alcanar

Metadades estació meteorol´gica
Municipi Alcanar
Comarca Montsià
Altitud 24 m
Data alta 06.05.1991
Estat actual Operativa
Dades de període
Període
TU
TM
°C
TX
°C
TN
°C
HRM
%
PPT
mm
VVM (2 m)
km/h
DVM (2 m)
graus
VVX (2 m)
km/h
RS
W/m2
00:00 - 00:30 8.8 9.1 8.5 46 0.0 4.7 359 17.6 0
00:30 - 01:00 8.7 9.0 8.3 46 0.0 5.8 9 37.1 0
01:00 - 01:30 9.0 9.3 8.8 44 0.0 7.6 3 25.6 0
01:30 - 02:00 8.9 9.0 8.7 44 0.0 10.1 334 23.4 0
02:00 - 02:30 9.0 9.5 8.5 43 0.0 7.2 348 20.5 0
02:30 - 03:00 8.4 8.6 8.2 45 0.0 7.6 330 19.1 0
03:00 - 03:30 8.8 9.1 8.5 42 0.0 6.5 351 20.5 0
03:30 - 04:00 8.0 8.7 7.0 45 0.0 2.9 279 10.4 0
04:00 - 04:30 7.6 8.4 6.6 45 0.0 5.8 320 18.0 0
04:30 - 05:00 8.4 8.5 8.0 41 0.0 10.1 343 22.3 0
05:00 - 05:30 8.5 8.6 8.4 41 0.0 10.8 342 22.3 0
05:30 - 06:00 8.5 8.6 8.3 43 0.0 11.5 334 27.4 0
06:00 - 06:30 8.5 8.7 8.4 44 0.0 10.1 340 27.4 0
06:30 - 07:00 8.4 8.5 8.1 44 0.0 6.5 335 16.9 0
07:00 - 07:30 8.2 8.3 8.1 44 0.0 4.3 345 14.4 6
07:30 - 08:00 8.0 9.1 7.2 45 0.0 5.0 293 19.4 49
08:00 - 08:30 9.4 9.8 9.1 41 0.0 8.6 6 22.3 123
08:30 - 09:00 10.1 10.7 9.7 41 0.0 7.2 30 17.3 198
09:00 - 09:30 11.1 11.4 10.6 38 0.0 6.1 355 15.5 268
09:30 - 10:00 11.6 12.0 11.3 38 0.0 6.8 24 20.5 330
10:00 - 10:30 12.5 13.0 12.2 35 0.0 5.0 356 15.8 380
10:30 - 11:00 13.1 13.6 12.8 31 0.0 7.6 333 17.3 419
11:00 - 11:30 13.1 13.6 12.8 40 0.0 6.1 88 16.6 444
11:30 - 12:00 13.3 14.1 12.9 37 0.0 4.0 80 10.1 456
12:00 - 12:30 13.8 14.8 13.2 34 0.0 4.0 98 13.7 451
12:30 - 13:00 14.4 15.0 13.9 30 0.0 4.3 291 13.0 435
13:00 - 13:30 14.9 15.2 14.6 24 0.0 5.4 312 13.7 404
13:30 - 14:00 15.0 15.5 14.5 23 0.0 3.2 324 13.7 359
14:00 - 14:30 13.9 14.8 13.1 41 0.0 5.8 111 13.7 303
14:30 - 15:00 13.1 13.5 12.9 41 0.0 4.7 105 11.9 238
15:00 - 15:30 13.5 13.8 13.2 38 0.0 2.9 133 6.1 167
15:30 - 16:00 13.2 13.7 12.6 40 0.0 1.1 137 4.3 94
16:00 - 16:30 10.3 12.9 8.5 54 0.0 1.8 318 9.4 24
16:30 - 17:00 9.4 10.6 7.5 44 0.0 3.6 321 11.5 2
17:00 - 17:30 7.5 8.1 7.2 50 0.0 2.5 299 6.5 0
17:30 - 18:00 8.1 8.8 7.7 49 0.0 3.6 297 8.3 0
18:00 - 18:30 9.1 9.8 7.4 46 0.0 2.9 282 9.7 0
18:30 - 19:00 8.0 9.3 7.1 52 0.0 4.3 268 10.8 0
19:00 - 19:30 9.8 10.0 9.3 48 0.0 6.8 325 14.8 0
19:30 - 20:00 9.4 9.8 9.0 48 0.0 5.8 301 14.0 0
20:00 - 20:30 9.3 9.4 9.1 50 0.0 5.4 286 13.0 0
20:30 - 21:00 10.4 10.7 9.6 47 0.0 7.2 324 17.6 0
21:00 - 21:30 10.5 10.8 10.2 47 0.0 8.3 327 20.2 0
21:30 - 22:00 10.4 10.6 10.3 48 0.0 6.8 341 19.8 0
22:00 - 22:30 10.5 10.9 10.3 48 0.0 4.7 332 15.1 0
22:30 - 23:00 10.2 10.6 9.9 49 0.0 4.0 344 15.8 0

Les dades en taronja només han passat un control de qualitat automàtic. Resta pendent la seva validació definitiva.